sensor_id;sensor_type;location;lat;lon;timestamp;P1;durP1;ratioP1;P2;durP2;ratioP2
25984;SDS011;66753;53.848;10.658;2023-08-30T00:13:08;3.80;;;1.77;;
25984;SDS011;66753;53.848;10.658;2023-08-30T00:28:10;3.30;;;1.70;;
25984;SDS011;66753;53.848;10.658;2023-08-30T00:43:13;3.30;;;1.63;;
25984;SDS011;66753;53.848;10.658;2023-08-30T00:58:14;3.93;;;2.00;;
25984;SDS011;66753;53.848;10.658;2023-08-30T01:13:18;4.10;;;1.80;;
25984;SDS011;66753;53.848;10.658;2023-08-30T01:28:22;4.23;;;2.00;;
25984;SDS011;66753;53.848;10.658;2023-08-30T01:43:27;4.40;;;1.70;;
25984;SDS011;66753;53.848;10.658;2023-08-30T01:58:31;3.33;;;1.90;;
25984;SDS011;66753;53.848;10.658;2023-08-30T02:13:32;3.23;;;1.63;;
25984;SDS011;66753;53.848;10.658;2023-08-30T02:28:35;3.37;;;1.77;;
25984;SDS011;66753;53.848;10.658;2023-08-30T02:43:39;4.13;;;1.60;;
25984;SDS011;66753;53.848;10.658;2023-08-30T02:58:41;4.47;;;1.70;;
25984;SDS011;66753;53.848;10.658;2023-08-30T03:13:43;4.77;;;2.10;;
25984;SDS011;66753;53.848;10.658;2023-08-30T03:28:44;3.13;;;1.70;;
25984;SDS011;66753;53.848;10.658;2023-08-30T03:43:46;4.50;;;2.10;;
25984;SDS011;66753;53.848;10.658;2023-08-30T03:58:47;4.93;;;2.43;;
25984;SDS011;66753;53.848;10.658;2023-08-30T04:13:48;3.63;;;2.20;;
25984;SDS011;66753;53.848;10.658;2023-08-30T04:28:50;4.27;;;2.40;;
25984;SDS011;66753;53.848;10.658;2023-08-30T04:43:52;3.97;;;2.20;;
25984;SDS011;66753;53.848;10.658;2023-08-30T04:58:53;4.67;;;2.13;;
25984;SDS011;66753;53.848;10.658;2023-08-30T05:13:55;3.77;;;2.03;;
25984;SDS011;66753;53.848;10.658;2023-08-30T05:28:56;5.13;;;2.53;;
25984;SDS011;66753;53.848;10.658;2023-08-30T05:43:58;5.70;;;3.00;;
25984;SDS011;66753;53.848;10.658;2023-08-30T05:58:59;5.93;;;3.20;;
25984;SDS011;66753;53.848;10.658;2023-08-30T06:14:00;7.10;;;3.27;;
25984;SDS011;66753;53.848;10.658;2023-08-30T06:29:02;6.40;;;3.40;;
25984;SDS011;66753;53.848;10.658;2023-08-30T06:44:03;9.40;;;4.87;;
25984;SDS011;66753;53.848;10.658;2023-08-30T06:59:05;12.00;;;6.40;;
25984;SDS011;66753;53.848;10.658;2023-08-30T07:14:08;10.70;;;5.17;;
25984;SDS011;66753;53.848;10.658;2023-08-30T07:29:10;10.43;;;5.40;;
25984;SDS011;66753;53.848;10.658;2023-08-30T07:44:11;9.03;;;5.10;;
25984;SDS011;66753;53.848;10.658;2023-08-30T07:59:13;7.70;;;4.50;;
25984;SDS011;66753;53.848;10.658;2023-08-30T08:14:14;8.17;;;4.77;;
25984;SDS011;66753;53.848;10.658;2023-08-30T08:29:16;7.00;;;4.50;;
25984;SDS011;66753;53.848;10.658;2023-08-30T08:44:17;4.93;;;3.80;;
25984;SDS011;66753;53.848;10.658;2023-08-30T08:59:19;6.83;;;3.87;;
25984;SDS011;66753;53.848;10.658;2023-08-30T09:14:22;4.43;;;3.00;;
25984;SDS011;66753;53.848;10.658;2023-08-30T09:29:23;3.30;;;2.60;;
25984;SDS011;66753;53.848;10.658;2023-08-30T09:44:29;3.57;;;2.43;;
25984;SDS011;66753;53.848;10.658;2023-08-30T09:59:30;3.70;;;2.20;;
25984;SDS011;66753;53.848;10.658;2023-08-30T10:14:32;4.20;;;2.20;;
25984;SDS011;66753;53.848;10.658;2023-08-30T10:29:35;3.47;;;1.90;;
25984;SDS011;66753;53.848;10.658;2023-08-30T10:44:56;3.33;;;2.40;;
25984;SDS011;66753;53.848;10.658;2023-08-30T11:00:07;4.40;;;2.87;;
25984;SDS011;66753;53.848;10.658;2023-08-30T11:15:19;5.17;;;3.37;;
25984;SDS011;66753;53.848;10.658;2023-08-30T11:30:21;4.47;;;4.07;;
25984;SDS011;66753;53.848;10.658;2023-08-30T11:45:24;7.13;;;4.00;;
25984;SDS011;66753;53.848;10.658;2023-08-30T12:00:25;6.53;;;4.90;;
25984;SDS011;66753;53.848;10.658;2023-08-30T12:15:27;6.03;;;3.50;;
25984;SDS011;66753;53.848;10.658;2023-08-30T12:30:34;5.17;;;4.17;;
25984;SDS011;66753;53.848;10.658;2023-08-30T12:45:36;4.70;;;4.20;;
25984;SDS011;66753;53.848;10.658;2023-08-30T13:00:40;4.17;;;3.20;;
25984;SDS011;66753;53.848;10.658;2023-08-30T13:15:42;4.50;;;3.70;;
25984;SDS011;66753;53.848;10.658;2023-08-30T13:30:46;4.50;;;2.87;;
25984;SDS011;66753;53.848;10.658;2023-08-30T13:45:56;6.77;;;3.80;;
25984;SDS011;66753;53.848;10.658;2023-08-30T14:01:00;4.73;;;3.73;;
25984;SDS011;66753;53.848;10.658;2023-08-30T14:16:02;4.80;;;3.70;;
25984;SDS011;66753;53.848;10.658;2023-08-30T14:31:06;5.33;;;3.20;;
25984;SDS011;66753;53.848;10.658;2023-08-30T14:46:09;4.60;;;3.80;;
25984;SDS011;66753;53.848;10.658;2023-08-30T15:01:10;4.63;;;3.10;;
25984;SDS011;66753;53.848;10.658;2023-08-30T15:16:11;4.20;;;3.03;;
25984;SDS011;66753;53.848;10.658;2023-08-30T15:31:13;5.03;;;3.63;;
25984;SDS011;66753;53.848;10.658;2023-08-30T15:46:17;3.37;;;2.90;;
25984;SDS011;66753;53.848;10.658;2023-08-30T16:01:22;5.07;;;2.60;;
25984;SDS011;66753;53.848;10.658;2023-08-30T16:16:23;6.40;;;3.23;;
25984;SDS011;66753;53.848;10.658;2023-08-30T16:31:28;5.50;;;3.73;;
25984;SDS011;66753;53.848;10.658;2023-08-30T16:46:30;4.80;;;3.40;;
25984;SDS011;66753;53.848;10.658;2023-08-30T17:01:33;4.70;;;3.40;;
25984;SDS011;66753;53.848;10.658;2023-08-30T17:31:36;5.20;;;3.30;;
25984;SDS011;66753;53.848;10.658;2023-08-30T17:46:37;4.37;;;2.97;;
25984;SDS011;66753;53.848;10.658;2023-08-30T18:01:40;4.17;;;2.83;;
25984;SDS011;66753;53.848;10.658;2023-08-30T18:16:45;5.07;;;3.20;;
25984;SDS011;66753;53.848;10.658;2023-08-30T18:46:48;7.37;;;5.07;;
25984;SDS011;66753;53.848;10.658;2023-08-30T19:01:50;7.93;;;5.33;;
25984;SDS011;66753;53.848;10.658;2023-08-30T19:16:51;8.03;;;5.40;;
25984;SDS011;66753;53.848;10.658;2023-08-30T19:31:53;8.37;;;5.63;;
25984;SDS011;66753;53.848;10.658;2023-08-30T19:46:54;8.20;;;5.40;;
25984;SDS011;66753;53.848;10.658;2023-08-30T20:01:58;9.70;;;6.77;;
25984;SDS011;66753;53.848;10.658;2023-08-30T20:17:00;9.90;;;6.83;;
25984;SDS011;66753;53.848;10.658;2023-08-30T20:32:02;9.83;;;6.90;;
25984;SDS011;66753;53.848;10.658;2023-08-30T20:47:04;9.33;;;5.90;;
25984;SDS011;66753;53.848;10.658;2023-08-30T21:02:05;8.80;;;6.37;;
25984;SDS011;66753;53.848;10.658;2023-08-30T21:17:09;11.27;;;8.57;;
25984;SDS011;66753;53.848;10.658;2023-08-30T21:32:10;13.47;;;9.10;;
25984;SDS011;66753;53.848;10.658;2023-08-30T21:47:11;9.37;;;6.50;;
25984;SDS011;66753;53.848;10.658;2023-08-30T22:02:13;10.77;;;6.80;;
25984;SDS011;66753;53.848;10.658;2023-08-30T22:17:14;9.60;;;5.70;;
25984;SDS011;66753;53.848;10.658;2023-08-30T22:32:15;8.77;;;5.23;;
25984;SDS011;66753;53.848;10.658;2023-08-30T22:47:17;8.40;;;5.40;;
25984;SDS011;66753;53.848;10.658;2023-08-30T23:02:18;9.17;;;5.10;;
25984;SDS011;66753;53.848;10.658;2023-08-30T23:17:19;8.53;;;4.97;;
25984;SDS011;66753;53.848;10.658;2023-08-30T23:32:22;8.23;;;5.47;;
25984;SDS011;66753;53.848;10.658;2023-08-30T23:47:23;8.90;;;5.40;;
